createdAt,value
2019-03-09T00:02:15.928Z,9.60
2019-03-09T00:04:44.147Z,9.80
2019-03-09T00:07:12.412Z,9.70
2019-03-09T00:09:40.913Z,9.80
2019-03-09T00:12:09.148Z,10.00
2019-03-09T00:14:37.374Z,10.10
2019-03-09T00:17:05.901Z,10.20
2019-03-09T00:19:34.378Z,10.20
2019-03-09T00:22:02.609Z,10.10
2019-03-09T00:24:45.074Z,10.10
2019-03-09T00:27:29.397Z,10.00
2019-03-09T00:29:55.097Z,10.10
2019-03-09T00:32:24.676Z,10.10
2019-03-09T00:34:52.897Z,10.10
2019-03-09T00:37:21.219Z,10.10
2019-03-09T00:39:49.443Z,10.00
2019-03-09T00:42:17.949Z,10.00
2019-03-09T00:44:46.169Z,10.10
2019-03-09T00:47:14.400Z,10.10
2019-03-09T00:49:42.620Z,10.10
2019-03-09T00:52:10.860Z,10.20
2019-03-09T00:54:39.080Z,10.20
2019-03-09T00:57:07.311Z,10.20
2019-03-09T00:59:35.534Z,10.20
2019-03-09T01:02:04.056Z,10.10
2019-03-09T01:04:32.272Z,10.10
2019-03-09T01:07:00.493Z,10.20
2019-03-09T01:09:28.734Z,10.10
2019-03-09T01:11:56.944Z,9.90
2019-03-09T01:14:25.176Z,9.80
2019-03-09T01:16:53.433Z,9.80
2019-03-09T01:19:21.990Z,9.90
2019-03-09T01:21:50.213Z,9.80
2019-03-09T01:24:18.436Z,9.70
2019-03-09T01:26:46.648Z,9.80
2019-03-09T01:29:14.876Z,9.90
2019-03-09T01:31:43.097Z,9.70
2019-03-09T01:34:11.331Z,9.80
2019-03-09T01:36:39.545Z,9.90
2019-03-09T01:39:07.776Z,10.00
2019-03-09T01:41:36.098Z,10.10
2019-03-09T01:44:04.324Z,10.20
2019-03-09T01:46:32.543Z,10.10
2019-03-09T01:49:00.780Z,10.10
2019-03-09T01:51:29.001Z,10.20
2019-03-09T01:53:57.238Z,10.20
2019-03-09T01:56:25.451Z,10.30
2019-03-09T01:58:53.689Z,10.10
2019-03-09T02:01:21.908Z,10.00
2019-03-09T02:03:50.140Z,9.80
2019-03-09T02:06:18.361Z,9.80
2019-03-09T02:08:46.637Z,9.60
2019-03-09T02:11:14.843Z,9.80
2019-03-09T02:13:43.073Z,9.60
2019-03-09T02:16:11.292Z,9.60
2019-03-09T02:18:39.819Z,9.70
2019-03-09T02:21:08.024Z,9.50
2019-03-09T02:23:36.256Z,9.70
2019-03-09T02:26:04.478Z,9.50
2019-03-09T02:28:32.704Z,9.70
2019-03-09T02:31:00.921Z,9.60
2019-03-09T02:33:29.151Z,9.70
2019-03-09T02:35:57.365Z,9.90
2019-03-09T02:38:36.496Z,9.90
2019-03-09T02:41:04.705Z,9.70
2019-03-09T02:43:32.948Z,9.60
2019-03-09T02:46:01.156Z,9.60
2019-03-09T02:48:29.384Z,9.70
2019-03-09T02:50:57.599Z,9.80
2019-03-09T02:53:26.473Z,9.80
2019-03-09T02:55:54.763Z,9.80
2019-03-09T02:58:22.968Z,9.80
2019-03-09T03:01:09.690Z,9.80
2019-03-09T03:03:38.002Z,9.60
2019-03-09T03:06:06.550Z,9.20
2019-03-09T03:08:35.029Z,9.40
2019-03-09T03:11:03.341Z,9.70
2019-03-09T03:13:31.557Z,9.60
2019-03-09T03:15:59.786Z,9.70
2019-03-09T03:18:28.008Z,9.40
2019-03-09T03:20:56.234Z,9.40
2019-03-09T03:23:24.453Z,9.60
2019-03-09T03:25:52.677Z,9.60
2019-03-09T03:28:20.893Z,9.50
2019-03-09T03:30:49.121Z,9.50
2019-03-09T03:33:17.341Z,9.60
2019-03-09T03:35:45.567Z,9.70
2019-03-09T03:38:13.784Z,9.50
2019-03-09T03:40:42.339Z,9.60
2019-03-09T03:43:10.612Z,9.70
2019-03-09T03:45:38.837Z,9.80
2019-03-09T03:48:07.053Z,9.70
2019-03-09T03:50:35.277Z,9.80
2019-03-09T03:53:03.505Z,9.90
2019-03-09T03:55:31.985Z,9.80
2019-03-09T03:58:00.209Z,10.00
2019-03-09T04:00:28.451Z,9.70
2019-03-09T04:02:56.661Z,9.80
2019-03-09T04:05:24.888Z,9.80
2019-03-09T04:07:53.173Z,9.70
2019-03-09T04:10:21.399Z,9.80
2019-03-09T04:12:49.622Z,9.80
2019-03-09T04:15:17.845Z,9.80
2019-03-09T04:17:46.075Z,9.80
2019-03-09T04:20:14.290Z,9.80
2019-03-09T04:22:42.507Z,9.70
2019-03-09T04:25:10.741Z,9.80
2019-03-09T04:27:38.959Z,9.80
2019-03-09T04:30:09.725Z,9.80
2019-03-09T04:32:37.944Z,9.80
2019-03-09T04:35:06.339Z,9.70
2019-03-09T04:37:34.558Z,9.60
2019-03-09T04:40:03.857Z,9.60
2019-03-09T04:42:32.080Z,9.60
2019-03-09T04:45:00.311Z,9.70
2019-03-09T04:47:28.569Z,9.60
2019-03-09T04:49:56.796Z,9.60
2019-03-09T04:52:25.301Z,9.70
2019-03-09T04:55:12.960Z,9.70
2019-03-09T04:57:41.178Z,9.70
2019-03-09T05:00:16.098Z,9.70
2019-03-09T05:02:44.313Z,9.80
2019-03-09T05:05:12.684Z,9.80
2019-03-09T05:07:43.875Z,9.70
2019-03-09T05:10:23.886Z,9.60
2019-03-09T05:13:01.726Z,9.50
2019-03-09T05:15:29.953Z,9.50
2019-03-09T05:17:58.444Z,9.50
2019-03-09T05:20:26.673Z,9.50
2019-03-09T05:22:54.888Z,9.30
2019-03-09T05:25:23.121Z,9.40
2019-03-09T05:27:51.336Z,9.30
2019-03-09T05:30:39.557Z,9.30
2019-03-09T05:33:07.776Z,9.40
2019-03-09T05:35:36.008Z,9.50
2019-03-09T05:38:04.333Z,9.60
2019-03-09T05:40:32.548Z,9.60
2019-03-09T05:43:01.084Z,9.60
2019-03-09T05:45:29.383Z,9.60
2019-03-09T05:47:57.647Z,9.50
2019-03-09T05:50:25.874Z,9.50
2019-03-09T05:53:17.058Z,9.40
2019-03-09T05:55:45.606Z,9.40
2019-03-09T05:58:13.820Z,9.40
2019-03-09T06:00:42.615Z,9.10
2019-03-09T06:03:10.844Z,9.20
2019-03-09T06:05:41.003Z,9.30
2019-03-09T06:08:09.385Z,9.20
2019-03-09T06:10:37.608Z,9.10
2019-03-09T06:13:05.833Z,9.10
2019-03-09T06:15:34.087Z,9.20
2019-03-09T06:18:02.306Z,9.10
2019-03-09T06:20:30.533Z,9.00
2019-03-09T06:22:58.753Z,9.00
2019-03-09T06:25:26.985Z,9.00
2019-03-09T06:27:55.205Z,9.10
2019-03-09T06:30:23.418Z,9.10
2019-03-09T06:33:20.564Z,9.10
2019-03-09T06:35:54.966Z,9.20
2019-03-09T06:38:42.900Z,9.10
2019-03-09T06:41:20.416Z,9.00
2019-03-09T06:43:48.721Z,8.90
2019-03-09T06:46:16.947Z,8.90
2019-03-09T06:48:45.160Z,9.00
2019-03-09T06:51:13.387Z,8.90
2019-03-09T06:53:41.608Z,9.10
2019-03-09T06:56:09.845Z,9.00
2019-03-09T06:58:57.532Z,9.10
2019-03-09T07:01:25.760Z,9.10
2019-03-09T07:03:53.980Z,9.10
2019-03-09T07:06:22.225Z,9.10
2019-03-09T07:08:50.444Z,8.90
2019-03-09T07:11:18.667Z,9.00
2019-03-09T07:13:52.913Z,9.00
2019-03-09T07:16:17.426Z,9.00
2019-03-09T07:18:45.651Z,9.10
2019-03-09T07:21:13.986Z,9.20
2019-03-09T07:23:42.201Z,9.40
2019-03-09T07:26:10.419Z,9.30
2019-03-09T07:28:38.644Z,9.20
2019-03-09T07:31:06.857Z,9.10
2019-03-09T07:33:35.090Z,9.20
2019-03-09T07:36:03.305Z,9.30
2019-03-09T07:38:31.532Z,9.40
2019-03-09T07:40:59.757Z,9.40
2019-03-09T07:43:27.981Z,9.30
2019-03-09T07:45:56.192Z,9.50
2019-03-09T07:48:24.424Z,9.60
2019-03-09T07:50:52.654Z,9.50
2019-03-09T07:53:20.874Z,9.50
2019-03-09T07:55:49.397Z,9.60
2019-03-09T07:58:17.626Z,9.70
2019-03-09T08:00:45.840Z,9.70
2019-03-09T08:03:14.069Z,9.70
2019-03-09T08:05:42.298Z,9.80
2019-03-09T08:08:10.518Z,9.90
2019-03-09T08:10:38.736Z,10.00
2019-03-09T08:13:06.978Z,10.10
2019-03-09T08:15:35.184Z,10.10
2019-03-09T08:18:03.412Z,9.90
2019-03-09T08:20:31.636Z,10.00
2019-03-09T08:22:59.881Z,10.20
2019-03-09T08:25:29.185Z,10.30
2019-03-09T08:27:57.545Z,10.30
2019-03-09T08:30:27.852Z,10.50
2019-03-09T08:32:56.084Z,10.60
2019-03-09T08:35:24.312Z,10.60
2019-03-09T08:37:52.867Z,10.60
2019-03-09T08:40:21.659Z,10.70
2019-03-09T08:42:49.889Z,11.00
2019-03-09T08:45:20.455Z,11.90
2019-03-09T08:47:52.556Z,12.30
2019-03-09T08:50:20.421Z,12.30
2019-03-09T08:52:48.745Z,12.30
2019-03-09T08:55:18.207Z,12.40
2019-03-09T08:57:46.622Z,12.50
2019-03-09T09:00:30.282Z,12.80
2019-03-09T09:02:58.985Z,12.40
2019-03-09T09:05:27.200Z,12.40
2019-03-09T09:07:55.737Z,12.20
2019-03-09T09:10:24.043Z,12.00
2019-03-09T09:12:52.425Z,11.80
2019-03-09T09:15:24.039Z,11.90
2019-03-09T09:17:52.274Z,11.90
2019-03-09T09:20:30.106Z,12.00
2019-03-09T09:22:58.626Z,12.00
2019-03-09T09:25:26.854Z,11.80
2019-03-09T09:27:55.193Z,11.70
2019-03-09T09:30:33.512Z,11.90
2019-03-09T09:33:01.754Z,11.90
2019-03-09T09:35:29.987Z,12.00
2019-03-09T09:37:58.222Z,12.10
2019-03-09T09:40:26.816Z,12.20
2019-03-09T09:42:55.223Z,12.10
2019-03-09T09:45:23.745Z,12.10
2019-03-09T09:47:51.969Z,12.20
2019-03-09T09:50:20.226Z,12.40
2019-03-09T09:52:48.450Z,12.30
2019-03-09T09:55:18.788Z,12.20
2019-03-09T09:57:47.008Z,12.30
2019-03-09T10:00:23.043Z,12.30
2019-03-09T10:02:51.265Z,12.20
2019-03-09T10:05:19.501Z,12.10
2019-03-09T10:07:47.793Z,12.10
2019-03-09T10:10:17.737Z,11.90
2019-03-09T10:12:46.069Z,11.90
2019-03-09T10:15:17.040Z,12.00
2019-03-09T10:17:45.265Z,12.00
2019-03-09T10:20:13.661Z,12.00
2019-03-09T10:22:41.924Z,12.00
2019-03-09T10:25:10.712Z,11.80
2019-03-09T10:27:39.186Z,11.70
2019-03-09T10:30:10.774Z,11.70
2019-03-09T10:32:38.992Z,11.60
2019-03-09T10:35:08.060Z,11.70
2019-03-09T10:37:36.420Z,11.60
2019-03-09T10:40:07.468Z,11.70
2019-03-09T10:42:35.316Z,11.80
2019-03-09T10:45:04.785Z,11.80
2019-03-09T10:47:33.004Z,11.90
2019-03-09T10:50:01.240Z,12.00
2019-03-09T10:52:29.733Z,11.90
2019-03-09T10:54:57.968Z,11.80
2019-03-09T10:57:26.196Z,11.80
2019-03-09T10:59:54.770Z,11.70
2019-03-09T11:02:23.000Z,11.70
2019-03-09T11:04:51.541Z,11.70
2019-03-09T11:07:19.763Z,11.70
2019-03-09T11:09:47.997Z,11.80
2019-03-09T11:12:16.225Z,11.90
2019-03-09T11:14:44.736Z,12.00
2019-03-09T11:17:13.036Z,12.00
2019-03-09T11:19:41.602Z,12.00
2019-03-09T11:22:10.177Z,12.00
2019-03-09T11:24:38.412Z,12.00
2019-03-09T11:27:06.630Z,12.00
2019-03-09T11:29:34.873Z,12.10
2019-03-09T11:32:03.085Z,12.10
2019-03-09T11:34:31.317Z,12.20
2019-03-09T11:36:59.540Z,12.20
2019-03-09T11:39:28.009Z,12.20
2019-03-09T11:41:56.280Z,12.30
2019-03-09T11:44:24.503Z,12.30
2019-03-09T11:46:52.735Z,12.30
2019-03-09T11:49:21.221Z,12.20
2019-03-09T11:51:49.488Z,12.30
2019-03-09T11:54:17.705Z,13.00
2019-03-09T11:56:45.992Z,13.00
2019-03-09T11:59:14.209Z,12.80
2019-03-09T12:01:42.445Z,12.70
2019-03-09T12:04:10.703Z,12.80
2019-03-09T12:06:39.035Z,12.60
2019-03-09T12:09:07.367Z,12.50
2019-03-09T12:11:35.706Z,12.40
2019-03-09T12:14:03.992Z,12.30
2019-03-09T12:16:32.271Z,12.20
2019-03-09T12:19:00.496Z,12.00
2019-03-09T12:21:28.733Z,12.10
2019-03-09T12:23:56.948Z,12.10
2019-03-09T12:26:25.204Z,11.90
2019-03-09T12:28:53.427Z,11.90
2019-03-09T12:31:21.655Z,11.80
2019-03-09T12:33:49.877Z,11.70
2019-03-09T12:36:18.123Z,11.70
2019-03-09T12:38:46.344Z,11.70
2019-03-09T12:41:14.585Z,11.70
2019-03-09T12:43:43.309Z,11.60
2019-03-09T12:46:11.881Z,11.50
2019-03-09T12:48:40.101Z,11.40
2019-03-09T12:51:08.345Z,11.50
2019-03-09T12:53:36.841Z,11.50
2019-03-09T12:56:05.229Z,11.50
2019-03-09T12:58:33.451Z,11.30
2019-03-09T13:01:01.681Z,11.40
2019-03-09T13:03:29.941Z,11.50
2019-03-09T13:05:58.180Z,11.40
2019-03-09T13:08:26.404Z,11.50
2019-03-09T13:10:56.003Z,11.50
2019-03-09T13:13:24.449Z,11.60
2019-03-09T13:15:52.680Z,11.70
2019-03-09T13:18:20.901Z,11.70
2019-03-09T13:20:49.131Z,11.60
2019-03-09T13:23:17.357Z,11.70
2019-03-09T13:25:45.589Z,11.70
2019-03-09T13:28:13.808Z,11.70
2019-03-09T13:30:42.047Z,11.80
2019-03-09T13:33:10.265Z,11.70
2019-03-09T13:35:38.496Z,11.70
2019-03-09T13:38:06.724Z,11.70
2019-03-09T13:40:35.324Z,11.80
2019-03-09T13:43:03.549Z,11.90
2019-03-09T13:45:31.769Z,11.90
2019-03-09T13:48:00.329Z,12.00
2019-03-09T13:50:28.554Z,11.80
2019-03-09T13:52:56.779Z,11.90
2019-03-09T13:55:25.012Z,11.60
2019-03-09T13:57:53.228Z,11.50
2019-03-09T14:00:21.452Z,11.50
2019-03-09T14:02:50.000Z,11.40
2019-03-09T14:05:18.216Z,11.40
2019-03-09T14:07:46.448Z,11.40
2019-03-09T14:10:15.708Z,11.50
2019-03-09T14:12:43.943Z,11.60
2019-03-09T14:15:15.484Z,11.70
2019-03-09T14:17:43.724Z,11.80
2019-03-09T14:20:14.045Z,11.60
2019-03-09T14:22:42.545Z,11.60
2019-03-09T14:25:12.301Z,11.70
2019-03-09T14:27:40.536Z,11.70
2019-03-09T14:30:12.005Z,11.80
2019-03-09T14:32:40.237Z,11.70
2019-03-09T14:35:08.523Z,11.60
2019-03-09T14:37:36.758Z,11.50
2019-03-09T14:40:07.434Z,11.40
2019-03-09T14:42:36.036Z,11.40
2019-03-09T14:45:06.748Z,11.40
2019-03-09T14:47:34.989Z,11.50
2019-03-09T14:50:04.553Z,11.40
2019-03-09T14:52:32.784Z,11.30
2019-03-09T14:55:01.004Z,11.20
2019-03-09T14:57:29.577Z,11.10
2019-03-09T14:59:57.802Z,11.00
2019-03-09T15:02:26.033Z,10.90
2019-03-09T15:04:54.257Z,11.00
2019-03-09T15:07:22.493Z,11.10
2019-03-09T15:09:50.713Z,11.10
2019-03-09T15:12:18.948Z,11.10
2019-03-09T15:14:47.170Z,11.10
2019-03-09T15:17:15.404Z,11.10
2019-03-09T15:19:43.628Z,11.00
2019-03-09T15:22:11.857Z,11.10
2019-03-09T15:24:40.077Z,11.20
2019-03-09T15:27:08.308Z,11.20
2019-03-09T15:29:36.532Z,11.30
2019-03-09T15:32:04.768Z,11.30
2019-03-09T15:34:33.031Z,11.30
2019-03-09T15:37:01.260Z,11.30
2019-03-09T15:39:29.484Z,11.30
2019-03-09T15:41:57.768Z,11.30
2019-03-09T15:44:26.333Z,11.20
2019-03-09T15:46:54.801Z,11.20
2019-03-09T15:49:23.041Z,11.10
2019-03-09T15:51:51.273Z,11.00
2019-03-09T15:54:19.569Z,11.10
2019-03-09T15:56:47.804Z,11.00
2019-03-09T15:59:16.032Z,11.10
2019-03-09T16:01:44.347Z,10.90
2019-03-09T16:04:12.841Z,11.00
2019-03-09T16:06:41.080Z,10.90
2019-03-09T16:09:09.319Z,11.10
2019-03-09T16:11:44.661Z,11.10
2019-03-09T16:14:07.483Z,11.10
2019-03-09T16:16:35.749Z,11.10
2019-03-09T16:19:03.968Z,11.10
2019-03-09T16:21:32.212Z,11.10
2019-03-09T16:24:00.429Z,11.20
2019-03-09T16:26:28.661Z,11.30
2019-03-09T16:28:56.876Z,11.30
2019-03-09T16:31:25.369Z,11.20
2019-03-09T16:33:53.585Z,11.10
2019-03-09T16:36:22.689Z,11.30
2019-03-09T16:38:52.323Z,11.40
2019-03-09T16:41:20.589Z,11.30
2019-03-09T16:43:48.805Z,11.40
2019-03-09T16:46:17.046Z,11.40
2019-03-09T16:48:46.915Z,11.40
2019-03-09T16:51:15.193Z,11.40
2019-03-09T16:53:43.579Z,11.40
2019-03-09T16:56:11.809Z,11.30
2019-03-09T16:58:40.030Z,11.30
2019-03-09T17:01:08.261Z,11.30
2019-03-09T17:03:36.729Z,11.30
2019-03-09T17:06:05.286Z,11.20
2019-03-09T17:08:33.866Z,11.10
2019-03-09T17:11:02.118Z,11.10
2019-03-09T17:13:54.889Z,11.10
2019-03-09T17:16:23.191Z,11.20
2019-03-09T17:18:51.408Z,11.20
2019-03-09T17:21:19.631Z,11.20
2019-03-09T17:23:47.860Z,11.10
2019-03-09T17:26:16.081Z,11.10
2019-03-09T17:28:44.316Z,11.10
2019-03-09T17:31:12.645Z,11.10
2019-03-09T17:33:40.892Z,11.10
2019-03-09T17:36:09.113Z,11.10
2019-03-09T17:38:37.652Z,11.10
2019-03-09T17:41:05.872Z,11.10
2019-03-09T17:43:34.145Z,11.20
2019-03-09T17:46:02.440Z,11.20
2019-03-09T17:48:30.680Z,11.20
2019-03-09T17:50:58.901Z,11.20
2019-03-09T17:53:27.141Z,11.10
2019-03-09T17:55:55.360Z,11.10
2019-03-09T17:58:23.704Z,11.10
2019-03-09T18:00:51.912Z,11.10
2019-03-09T18:03:20.144Z,11.00
2019-03-09T18:05:48.369Z,11.20
2019-03-09T18:08:16.708Z,11.10
2019-03-09T18:10:56.657Z,11.10
2019-03-09T18:13:24.893Z,11.10
2019-03-09T18:15:53.374Z,11.10
2019-03-09T18:18:21.857Z,11.10
2019-03-09T18:20:50.076Z,11.10
2019-03-09T18:23:18.388Z,11.00
2019-03-09T18:25:46.604Z,11.00
2019-03-09T18:28:14.845Z,11.00
2019-03-09T18:30:43.073Z,11.10
2019-03-09T18:33:11.323Z,11.10
2019-03-09T18:35:41.868Z,11.20
2019-03-09T18:38:10.520Z,11.10
2019-03-09T18:40:38.820Z,11.10
2019-03-09T18:46:29.400Z,11.10
2019-03-09T18:48:57.904Z,11.10
2019-03-09T18:51:26.132Z,10.90
2019-03-09T18:53:57.606Z,11.10
2019-03-09T18:56:48.746Z,11.10
2019-03-09T18:59:16.974Z,11.10
2019-03-09T19:01:49.763Z,11.00
2019-03-09T19:04:19.516Z,11.00
2019-03-09T19:06:47.958Z,11.00
2019-03-09T19:09:16.479Z,11.00
2019-03-09T19:11:45.310Z,10.90
2019-03-09T19:14:13.578Z,11.00
2019-03-09T19:16:42.125Z,10.90
2019-03-09T19:19:10.608Z,10.90
2019-03-09T19:21:40.274Z,10.90
2019-03-09T19:24:08.716Z,10.80
2019-03-09T19:26:36.987Z,10.80
2019-03-09T19:29:05.220Z,10.90
2019-03-09T19:31:43.788Z,10.90
2019-03-09T19:34:16.936Z,10.90
2019-03-09T19:36:45.244Z,11.00
2019-03-09T19:39:13.541Z,11.10
2019-03-09T19:41:41.761Z,11.10
2019-03-09T19:44:09.992Z,11.20
2019-03-09T19:46:38.537Z,11.10
2019-03-09T19:49:07.157Z,10.90
2019-03-09T19:51:35.375Z,11.00
2019-03-09T19:54:03.617Z,11.00
2019-03-09T19:56:32.072Z,11.10
2019-03-09T19:59:00.312Z,11.00
2019-03-09T20:01:28.572Z,11.10
2019-03-09T20:03:56.816Z,11.20
2019-03-09T20:06:25.028Z,11.10
2019-03-09T20:08:53.400Z,11.20
2019-03-09T20:11:21.604Z,11.30
2019-03-09T20:13:49.845Z,11.20
2019-03-09T20:16:18.068Z,11.10
2019-03-09T20:18:46.317Z,11.20
2019-03-09T20:21:14.596Z,11.00
2019-03-09T20:23:44.379Z,11.10
2019-03-09T20:26:12.656Z,11.10
2019-03-09T20:28:40.873Z,11.00
2019-03-09T20:31:09.357Z,11.00
2019-03-09T20:33:37.590Z,10.90
2019-03-09T20:36:05.816Z,10.90
2019-03-09T20:38:34.047Z,10.90
2019-03-09T20:41:02.276Z,11.00
2019-03-09T20:43:30.841Z,11.10
2019-03-09T20:46:02.500Z,11.00
2019-03-09T20:48:30.856Z,11.00
2019-03-09T20:50:59.088Z,11.10
2019-03-09T20:53:27.636Z,11.10
2019-03-09T20:55:55.868Z,11.20
2019-03-09T20:58:24.096Z,11.20
2019-03-09T21:00:52.336Z,11.20
2019-03-09T21:03:22.771Z,11.10
2019-03-09T21:05:50.807Z,11.20
2019-03-09T21:08:19.032Z,11.30
2019-03-09T21:10:47.272Z,11.20
2019-03-09T21:13:15.789Z,11.10
2019-03-09T21:15:44.064Z,11.20
2019-03-09T21:18:12.664Z,11.20
2019-03-09T21:20:40.888Z,11.20
2019-03-09T21:23:09.104Z,11.20
2019-03-09T21:25:37.341Z,11.10
2019-03-09T21:28:05.870Z,11.10
2019-03-09T21:30:34.136Z,11.20
2019-03-09T21:33:02.616Z,11.10
2019-03-09T21:35:30.863Z,11.10
2019-03-09T21:37:59.396Z,11.10
2019-03-09T21:40:27.690Z,11.20
2019-03-09T21:42:55.912Z,11.20
2019-03-09T21:45:24.513Z,11.30
2019-03-09T21:47:52.732Z,11.30
2019-03-09T21:50:20.964Z,11.30
2019-03-09T21:52:49.184Z,11.30
2019-03-09T21:55:17.688Z,11.20
2019-03-09T21:57:45.909Z,11.10
2019-03-09T22:00:19.121Z,11.20
2019-03-09T22:02:47.344Z,11.20
2019-03-09T22:05:15.576Z,11.20
2019-03-09T22:07:43.799Z,11.20
2019-03-09T22:10:13.000Z,11.20
2019-03-09T22:12:41.317Z,11.20
2019-03-09T22:15:14.480Z,11.20
2019-03-09T22:17:42.703Z,11.20
2019-03-09T22:20:12.368Z,11.10
2019-03-09T22:22:40.845Z,11.20
2019-03-09T22:25:13.226Z,11.30
2019-03-09T22:27:41.446Z,11.30
2019-03-09T22:30:13.936Z,11.20
2019-03-09T22:32:42.149Z,11.20
2019-03-09T22:35:11.928Z,11.20
2019-03-09T22:37:40.152Z,11.30
2019-03-09T22:40:10.608Z,11.30
2019-03-09T22:42:38.876Z,11.20
2019-03-09T22:45:09.996Z,11.30
2019-03-09T22:47:37.865Z,11.20
2019-03-09T22:50:18.283Z,11.30
2019-03-09T22:52:46.512Z,11.30
2019-03-09T22:55:14.730Z,11.30
2019-03-09T22:57:42.955Z,11.40
2019-03-09T23:00:20.563Z,11.30
2019-03-09T23:02:48.800Z,11.30
2019-03-09T23:05:17.103Z,11.30
2019-03-09T23:07:45.334Z,11.40
2019-03-09T23:10:19.075Z,11.30
2019-03-09T23:13:06.733Z,11.30
2019-03-09T23:15:34.970Z,11.40
2019-03-09T23:18:03.188Z,11.30
2019-03-09T23:20:31.408Z,11.40
2019-03-09T23:22:59.640Z,11.40
2019-03-09T23:25:27.865Z,11.50
2019-03-09T23:27:56.136Z,11.50
2019-03-09T23:30:24.396Z,11.50
2019-03-09T23:32:52.900Z,11.60
2019-03-09T23:35:21.201Z,11.60
2019-03-09T23:37:49.435Z,11.60
2019-03-09T23:40:23.969Z,11.60
2019-03-09T23:42:52.201Z,11.60
2019-03-09T23:45:24.824Z,11.60
2019-03-09T23:47:53.052Z,11.60
2019-03-09T23:50:21.296Z,11.40
2019-03-09T23:52:49.532Z,11.50
2019-03-09T23:55:22.400Z,11.50
2019-03-09T23:57:48.521Z,11.50
